createdAt,value
2019-05-06T00:00:55.783Z,4.41
2019-05-06T00:03:16.232Z,4.51
2019-05-06T00:05:46.346Z,4.54
2019-05-06T00:08:16.977Z,4.54
2019-05-06T00:10:46.677Z,4.55
2019-05-06T00:13:18.272Z,4.52
2019-05-06T00:15:47.926Z,4.47
2019-05-06T00:18:17.871Z,4.47
2019-05-06T00:20:47.791Z,4.49
2019-05-06T00:23:24.955Z,4.54
2019-05-06T00:26:10.963Z,4.47
2019-05-06T00:28:47.298Z,4.58
2019-05-06T00:31:18.523Z,4.58
2019-05-06T00:33:49.398Z,4.58
2019-05-06T00:36:18.971Z,4.52
2019-05-06T00:38:53.956Z,4.50
2019-05-06T00:41:28.772Z,4.34
2019-05-06T00:43:59.252Z,4.36
2019-05-06T00:46:28.811Z,4.36
2019-05-06T00:48:58.733Z,4.45
2019-05-06T00:51:28.693Z,4.51
2019-05-06T00:54:04.011Z,4.51
2019-05-06T00:56:34.220Z,4.65
2019-05-06T00:59:04.285Z,4.65
2019-05-06T01:01:34.592Z,4.65
2019-05-06T01:04:05.301Z,4.73
2019-05-06T01:06:35.104Z,4.85
2019-05-06T01:09:08.501Z,4.85
2019-05-06T01:11:44.917Z,4.90
2019-05-06T01:14:20.055Z,4.90
2019-05-06T01:16:49.676Z,4.77
2019-05-06T01:19:19.528Z,4.69
2019-05-06T01:21:49.309Z,4.69
2019-05-06T01:24:23.688Z,4.79
2019-05-06T01:26:53.676Z,4.75
2019-05-06T01:29:24.186Z,4.75
2019-05-06T01:31:54.526Z,4.61
2019-05-06T01:34:26.910Z,4.67
2019-05-06T01:36:59.009Z,4.69
2019-05-06T01:39:43.607Z,4.60
2019-05-06T01:42:34.426Z,4.57
2019-05-06T01:45:04.788Z,4.57
2019-05-06T01:47:34.687Z,4.60
2019-05-06T01:50:04.722Z,4.60
2019-05-06T01:52:34.652Z,4.44
2019-05-06T01:55:04.900Z,4.44
2019-05-06T01:57:34.633Z,4.47
2019-05-06T02:00:05.500Z,4.59
2019-05-06T02:02:35.625Z,4.56
2019-05-06T02:05:05.550Z,4.37
2019-05-06T02:07:35.263Z,4.31
2019-05-06T02:10:05.633Z,4.42
2019-05-06T02:12:35.444Z,4.42
2019-05-06T02:15:05.400Z,4.36
2019-05-06T02:17:35.217Z,4.45
2019-05-06T02:20:06.194Z,4.46
2019-05-06T02:22:57.822Z,4.50
2019-05-06T02:25:36.488Z,4.50
2019-05-06T02:28:06.277Z,4.28
2019-05-06T02:31:01.394Z,4.42
2019-05-06T02:34:04.925Z,4.45
2019-05-06T02:36:55.231Z,4.42
2019-05-06T02:39:25.314Z,4.41
2019-05-06T02:41:55.247Z,4.38
2019-05-06T02:44:25.551Z,4.40
2019-05-06T02:47:03.121Z,4.40
2019-05-06T02:49:55.024Z,4.37
2019-05-06T02:52:24.783Z,4.37
2019-05-06T02:54:54.695Z,4.39
2019-05-06T02:57:25.161Z,4.40
2019-05-06T02:59:55.811Z,4.42
2019-05-06T03:02:38.617Z,4.43
2019-05-06T03:04:57.523Z,4.43
2019-05-06T03:07:27.409Z,4.40
2019-05-06T03:09:57.246Z,4.40
2019-05-06T03:12:27.734Z,4.50
2019-05-06T03:14:57.454Z,4.56
2019-05-06T03:17:27.422Z,4.50
2019-05-06T03:19:59.140Z,4.45
2019-05-06T03:22:43.489Z,4.46
2019-05-06T03:25:24.038Z,4.43
2019-05-06T03:27:53.393Z,4.48
2019-05-06T03:30:25.394Z,4.49
2019-05-06T03:35:41.190Z,4.43
2019-05-06T03:37:58.058Z,4.43
2019-05-06T03:40:27.786Z,4.39
2019-05-06T03:42:57.904Z,4.42
2019-05-06T03:45:38.446Z,4.27
2019-05-06T03:48:14.100Z,4.25
2019-05-06T03:50:44.232Z,4.35
2019-05-06T03:53:14.208Z,4.33
2019-05-06T03:55:47.152Z,4.33
2019-05-06T03:58:15.829Z,4.31
2019-05-06T04:00:46.722Z,4.19
2019-05-06T04:03:16.650Z,4.19
2019-05-06T04:05:46.551Z,4.27
2019-05-06T04:08:20.171Z,4.30
2019-05-06T04:10:48.700Z,4.36
2019-05-06T04:13:18.460Z,4.36
2019-05-06T04:16:03.726Z,4.36
2019-05-06T04:18:35.208Z,4.36
2019-05-06T04:21:13.389Z,4.48
2019-05-06T04:24:04.064Z,4.48
2019-05-06T04:27:03.029Z,4.53
2019-05-06T04:29:35.567Z,4.50
2019-05-06T04:32:05.408Z,4.58
2019-05-06T04:34:39.366Z,4.49
2019-05-06T04:37:15.159Z,4.70
2019-05-06T04:39:44.822Z,4.47
2019-05-06T04:42:14.657Z,4.34
2019-05-06T04:44:44.638Z,4.70
2019-05-06T04:47:16.724Z,4.67
2019-05-06T04:49:46.660Z,4.67
2019-05-06T04:52:16.439Z,4.71
2019-05-06T04:54:46.665Z,4.76
2019-05-06T04:57:17.117Z,4.76
2019-05-06T04:59:47.093Z,4.82
2019-05-06T05:02:17.132Z,4.89
2019-05-06T05:04:46.900Z,4.89
2019-05-06T05:07:16.629Z,4.92
2019-05-06T05:09:46.634Z,4.92
2019-05-06T05:12:33.625Z,5.01
2019-05-06T05:15:27.194Z,5.08
2019-05-06T05:18:13.396Z,5.19
2019-05-06T05:20:46.558Z,5.33
2019-05-06T05:23:18.450Z,5.19
2019-05-06T05:25:49.287Z,5.29
2019-05-06T05:28:19.212Z,5.29
2019-05-06T05:30:49.416Z,5.46
2019-05-06T05:33:19.625Z,5.43
2019-05-06T05:35:49.427Z,5.43
2019-05-06T05:38:19.447Z,5.52
2019-05-06T05:40:49.253Z,5.72
2019-05-06T05:43:32.515Z,5.57
2019-05-06T05:46:02.941Z,5.71
2019-05-06T05:48:45.838Z,5.71
2019-05-06T05:51:16.272Z,5.96
2019-05-06T05:53:45.922Z,5.96
2019-05-06T05:56:16.341Z,6.00
2019-05-06T05:58:46.150Z,5.95
2019-05-06T06:01:16.089Z,6.10
2019-05-06T06:03:46.143Z,6.11
2019-05-06T06:06:16.083Z,6.05
2019-05-06T06:08:45.651Z,6.05
2019-05-06T06:11:22.939Z,6.14
2019-05-06T06:13:52.943Z,6.12
2019-05-06T06:16:48.084Z,6.12
2019-05-06T06:19:35.466Z,6.34
2019-05-06T06:22:08.581Z,6.20
2019-05-06T06:24:38.812Z,6.20
2019-05-06T06:27:12.562Z,6.35
2019-05-06T06:29:45.182Z,6.35
2019-05-06T06:32:19.822Z,6.42
2019-05-06T06:35:11.526Z,6.36
2019-05-06T06:37:58.556Z,6.56
2019-05-06T06:40:30.049Z,6.56
2019-05-06T06:43:04.652Z,6.54
2019-05-06T06:45:34.711Z,6.66
2019-05-06T06:48:04.474Z,6.78
2019-05-06T06:50:34.369Z,6.78
2019-05-06T06:53:03.853Z,6.88
2019-05-06T06:55:34.064Z,6.88
2019-05-06T06:58:15.262Z,6.93
2019-05-06T07:00:58.163Z,7.12
2019-05-06T07:03:38.262Z,7.06
2019-05-06T07:06:13.289Z,7.06
2019-05-06T07:08:43.330Z,7.23
2019-05-06T07:11:13.625Z,7.27
2019-05-06T07:13:53.056Z,7.64
2019-05-06T07:16:23.488Z,7.64
2019-05-06T07:18:53.504Z,7.59
2019-05-06T07:21:43.757Z,7.59
2019-05-06T07:24:13.847Z,7.56
2019-05-06T07:26:52.443Z,7.51
2019-05-06T07:29:26.281Z,7.56
2019-05-06T07:31:53.641Z,7.60
2019-05-06T07:34:23.579Z,7.60
2019-05-06T07:36:53.296Z,7.47
2019-05-06T07:39:24.101Z,7.62
2019-05-06T07:41:59.917Z,7.56
2019-05-06T07:44:59.647Z,7.56
2019-05-06T07:47:38.154Z,7.37
2019-05-06T07:50:07.895Z,7.56
2019-05-06T07:52:37.502Z,7.56
2019-05-06T07:55:07.187Z,7.42
2019-05-06T07:57:42.402Z,7.29
2019-05-06T08:00:12.678Z,7.66
2019-05-06T08:02:42.686Z,7.61
2019-05-06T08:05:12.899Z,7.42
2019-05-06T08:07:42.538Z,7.62
2019-05-06T08:10:13.614Z,7.47
2019-05-06T08:12:44.985Z,7.47
2019-05-06T08:17:52.541Z,8.16
2019-05-06T08:20:22.445Z,8.16
2019-05-06T08:23:12.590Z,8.05
2019-05-06T08:25:47.926Z,8.05
2019-05-06T08:28:17.513Z,8.25
2019-05-06T08:30:48.151Z,8.31
2019-05-06T08:33:18.033Z,8.36
2019-05-06T08:35:47.825Z,8.56
2019-05-06T08:38:17.349Z,8.53
2019-05-06T08:40:47.143Z,8.74
2019-05-06T08:43:16.755Z,8.74
2019-05-06T08:45:46.429Z,8.67
2019-05-06T08:48:16.133Z,8.61
2019-05-06T08:50:52.892Z,8.60
2019-05-06T08:53:29.136Z,8.34
2019-05-06T08:55:58.679Z,8.41
2019-05-06T08:58:47.056Z,8.58
2019-05-06T09:01:47.164Z,8.58
2019-05-06T09:04:16.840Z,8.60
2019-05-06T09:06:46.641Z,8.60
2019-05-06T09:09:16.928Z,8.45
2019-05-06T09:11:46.632Z,8.69
2019-05-06T09:14:16.202Z,8.90
2019-05-06T09:16:45.728Z,8.90
2019-05-06T09:19:15.631Z,8.95
2019-05-06T09:21:46.522Z,8.95
2019-05-06T09:24:17.125Z,9.03
2019-05-06T09:27:12.748Z,9.03
2019-05-06T09:29:48.586Z,8.73
2019-05-06T09:32:22.682Z,8.92
2019-05-06T09:34:54.626Z,8.82
2019-05-06T09:37:24.754Z,9.04
2019-05-06T09:39:57.128Z,9.04
2019-05-06T09:42:27.142Z,9.30
2019-05-06T09:44:56.584Z,9.12
2019-05-06T09:47:37.596Z,9.37
2019-05-06T09:50:09.238Z,9.70
2019-05-06T09:52:38.952Z,9.88
2019-05-06T09:55:17.269Z,10.07
2019-05-06T09:57:58.484Z,10.07
2019-05-06T10:00:32.903Z,10.53
2019-05-06T10:03:02.989Z,10.80
2019-05-06T10:05:32.957Z,10.55
2019-05-06T10:08:03.259Z,10.70
2019-05-06T10:10:33.189Z,10.70
2019-05-06T10:13:03.350Z,10.70
2019-05-06T10:15:34.755Z,10.86
2019-05-06T10:18:07.611Z,10.94
2019-05-06T10:20:42.755Z,10.94
2019-05-06T10:23:13.141Z,10.80
2019-05-06T10:26:09.127Z,10.78
2019-05-06T10:29:02.463Z,11.20
2019-05-06T10:31:39.864Z,11.20
2019-05-06T10:34:14.267Z,11.14
2019-05-06T10:37:11.711Z,10.95
2019-05-06T10:39:30.159Z,10.95
2019-05-06T10:42:13.130Z,10.90
2019-05-06T10:45:01.805Z,11.00
2019-05-06T10:47:34.268Z,11.30
2019-05-06T10:50:12.604Z,11.30
2019-05-06T10:52:59.376Z,11.34
2019-05-06T10:55:29.126Z,11.12
2019-05-06T10:57:58.651Z,11.12
2019-05-06T11:00:28.613Z,10.82
2019-05-06T11:03:15.796Z,10.82
2019-05-06T11:05:45.974Z,10.52
2019-05-06T11:08:16.237Z,10.50
2019-05-06T11:10:46.166Z,10.06
2019-05-06T11:13:24.409Z,10.24
2019-05-06T11:16:03.404Z,10.05
2019-05-06T11:18:36.135Z,10.13
2019-05-06T11:21:09.966Z,10.17
2019-05-06T11:23:45.913Z,10.17
2019-05-06T11:26:17.223Z,10.18
2019-05-06T11:29:05.463Z,10.08
2019-05-06T11:32:06.290Z,10.18
2019-05-06T11:35:03.614Z,10.46
2019-05-06T11:37:49.746Z,10.46
2019-05-06T11:40:17.063Z,10.43
2019-05-06T11:42:47.364Z,11.25
2019-05-06T11:45:22.710Z,11.37
2019-05-06T11:47:55.812Z,11.37
2019-05-06T11:50:27.133Z,11.08
2019-05-06T11:52:57.827Z,11.06
2019-05-06T11:55:32.547Z,11.19
2019-05-06T11:58:02.374Z,11.19
2019-05-06T12:00:36.554Z,10.97
2019-05-06T12:03:07.115Z,10.97
2019-05-06T12:05:37.409Z,11.07
2019-05-06T12:08:08.332Z,10.88
2019-05-06T12:10:38.669Z,10.65
2019-05-06T12:13:23.027Z,10.56
2019-05-06T12:15:54.440Z,10.56
2019-05-06T12:18:24.744Z,10.36
2019-05-06T12:21:08.199Z,10.28
2019-05-06T12:23:27.236Z,10.14
2019-05-06T12:25:57.728Z,10.14
2019-05-06T12:28:32.554Z,10.34
2019-05-06T12:31:02.625Z,10.23
2019-05-06T12:33:45.485Z,10.23
2019-05-06T12:36:22.147Z,10.04
2019-05-06T12:39:14.837Z,9.91
2019-05-06T12:42:06.159Z,9.62
2019-05-06T12:44:37.128Z,9.92
2019-05-06T12:47:22.017Z,9.84
2019-05-06T12:49:53.387Z,9.78
2019-05-06T12:52:23.804Z,9.78
2019-05-06T12:55:00.392Z,9.78
2019-05-06T12:57:26.156Z,10.04
2019-05-06T12:59:55.754Z,9.82
2019-05-06T13:02:25.377Z,9.74
2019-05-06T13:05:00.662Z,9.74
2019-05-06T13:07:33.884Z,9.98
2019-05-06T13:10:09.083Z,9.97
2019-05-06T13:12:42.445Z,9.97
2019-05-06T13:15:13.521Z,9.86
2019-05-06T13:17:47.181Z,9.97
2019-05-06T13:20:14.871Z,9.87
2019-05-06T13:22:53.112Z,9.87
2019-05-06T13:25:23.432Z,9.87
2019-05-06T13:27:56.428Z,10.23
2019-05-06T13:30:26.161Z,10.18
2019-05-06T13:33:07.291Z,10.99
2019-05-06T13:35:38.382Z,11.12
2019-05-06T13:38:08.204Z,11.12
2019-05-06T13:40:51.312Z,11.30
2019-05-06T13:43:43.876Z,11.30
2019-05-06T13:46:26.158Z,11.20
2019-05-06T13:49:15.569Z,11.62
2019-05-06T13:52:04.471Z,11.62
2019-05-06T13:54:37.322Z,11.80
2019-05-06T13:57:07.656Z,11.80
2019-05-06T13:59:37.534Z,11.34
2019-05-06T14:02:34.096Z,11.52
2019-05-06T14:05:06.632Z,11.62
2019-05-06T14:07:37.431Z,11.77
2019-05-06T14:10:07.676Z,11.67
2019-05-06T14:12:37.303Z,11.63
2019-05-06T14:15:07.353Z,11.66
2019-05-06T14:17:37.064Z,11.49
2019-05-06T14:20:10.010Z,11.49
2019-05-06T14:22:43.770Z,11.66
2019-05-06T14:25:34.152Z,11.42
2019-05-06T14:28:12.265Z,11.77
2019-05-06T14:31:02.923Z,11.49
2019-05-06T14:33:32.405Z,11.49
2019-05-06T14:36:03.242Z,11.40
2019-05-06T14:38:33.930Z,11.82
2019-05-06T14:41:13.055Z,11.69
2019-05-06T14:43:43.162Z,11.69
2019-05-06T14:46:13.003Z,11.60
2019-05-06T14:48:43.668Z,11.60
2019-05-06T14:51:15.195Z,11.45
2019-05-06T14:53:44.730Z,11.62
2019-05-06T14:56:22.748Z,11.62
2019-05-06T14:59:06.098Z,11.47
2019-05-06T15:01:36.218Z,11.51
2019-05-06T15:04:06.163Z,11.33
2019-05-06T15:06:36.182Z,11.60
2019-05-06T15:09:08.073Z,11.60
2019-05-06T15:11:37.905Z,11.59
2019-05-06T15:14:07.381Z,11.54
2019-05-06T15:16:37.163Z,11.51
2019-05-06T15:19:06.774Z,11.66
2019-05-06T15:21:38.856Z,11.36
2019-05-06T15:24:07.994Z,11.52
2019-05-06T15:26:37.559Z,11.67
2019-05-06T15:29:07.085Z,11.67
2019-05-06T15:31:53.043Z,11.58
2019-05-06T15:34:28.283Z,11.86
2019-05-06T15:37:08.075Z,11.81
2019-05-06T15:39:40.215Z,11.81
2019-05-06T15:42:10.083Z,11.72
2019-05-06T15:44:42.555Z,11.95
2019-05-06T15:47:13.174Z,11.78
2019-05-06T15:49:43.283Z,11.53
2019-05-06T15:52:13.499Z,11.39
2019-05-06T15:54:43.249Z,11.18
2019-05-06T15:57:16.571Z,11.18
2019-05-06T15:59:47.326Z,11.33
2019-05-06T16:02:16.903Z,11.11
2019-05-06T16:04:46.872Z,10.94
2019-05-06T16:07:16.513Z,10.94
2019-05-06T16:09:49.221Z,10.59
2019-05-06T16:12:22.055Z,10.41
2019-05-06T16:14:53.079Z,10.41
2019-05-06T16:17:23.777Z,9.94
2019-05-06T16:19:53.543Z,9.57
2019-05-06T16:22:23.393Z,8.79
2019-05-06T16:25:04.732Z,8.77
2019-05-06T16:27:36.998Z,8.70
2019-05-06T16:30:09.153Z,8.24
2019-05-06T16:32:41.948Z,8.24
2019-05-06T16:35:14.328Z,7.59
2019-05-06T16:37:44.272Z,7.80
2019-05-06T16:40:14.268Z,7.47
2019-05-06T16:42:45.990Z,7.47
2019-05-06T16:45:18.792Z,7.41
2019-05-06T16:47:48.699Z,7.40
2019-05-06T16:50:18.387Z,7.35
2019-05-06T16:52:52.360Z,7.35
2019-05-06T16:55:26.153Z,7.55
2019-05-06T16:58:06.646Z,7.72
2019-05-06T17:00:37.848Z,7.72
2019-05-06T17:03:19.329Z,7.73
2019-05-06T17:06:07.171Z,7.73
2019-05-06T17:08:36.940Z,7.50
2019-05-06T17:11:07.315Z,7.50
2019-05-06T17:13:37.845Z,7.60
2019-05-06T17:16:13.847Z,7.62
2019-05-06T17:18:42.837Z,7.75
2019-05-06T17:21:13.259Z,7.77
2019-05-06T17:23:43.465Z,7.78
2019-05-06T17:26:13.648Z,7.78
2019-05-06T17:29:08.158Z,7.82
2019-05-06T17:31:45.732Z,7.82
2019-05-06T17:34:18.809Z,7.89
2019-05-06T17:36:49.140Z,7.89
2019-05-06T17:39:18.706Z,7.95
2019-05-06T17:41:52.249Z,7.92
2019-05-06T17:44:28.034Z,8.02
2019-05-06T17:47:17.177Z,7.76
2019-05-06T17:49:57.294Z,7.85
2019-05-06T17:52:27.953Z,7.85
2019-05-06T17:54:57.900Z,7.87
2019-05-06T17:57:28.600Z,7.98
2019-05-06T18:00:04.659Z,7.56
2019-05-06T18:02:37.461Z,7.70
2019-05-06T18:05:17.806Z,7.70
2019-05-06T18:07:48.675Z,7.57
2019-05-06T18:10:21.998Z,7.57
2019-05-06T18:12:53.087Z,7.58
2019-05-06T18:15:24.525Z,7.59
2019-05-06T18:17:54.317Z,7.80
2019-05-06T18:20:24.001Z,7.77
2019-05-06T18:22:55.264Z,7.69
2019-05-06T18:25:26.003Z,7.69
2019-05-06T18:27:57.784Z,7.59
2019-05-06T18:30:33.691Z,7.48
2019-05-06T18:33:02.163Z,7.63
2019-05-06T18:35:32.788Z,7.63
2019-05-06T18:38:02.954Z,7.64
2019-05-06T18:40:36.080Z,7.69
2019-05-06T18:43:12.733Z,7.63
2019-05-06T18:45:42.918Z,7.63
2019-05-06T18:48:16.760Z,7.59
2019-05-06T18:50:47.918Z,7.63
2019-05-06T18:53:19.677Z,7.63
2019-05-06T18:55:50.759Z,7.59
2019-05-06T18:58:23.063Z,7.44
2019-05-06T19:00:53.170Z,7.54
2019-05-06T19:03:26.339Z,7.54
2019-05-06T19:05:59.527Z,7.45
2019-05-06T19:08:46.916Z,7.47
2019-05-06T19:11:16.913Z,7.45
2019-05-06T19:13:46.910Z,7.43
2019-05-06T19:16:16.769Z,7.43
2019-05-06T19:18:47.297Z,7.52
2019-05-06T19:21:17.651Z,7.44
2019-05-06T19:23:48.041Z,7.49
2019-05-06T19:26:18.196Z,7.49
2019-05-06T19:28:47.862Z,7.35
2019-05-06T19:31:17.404Z,7.35
2019-05-06T19:33:47.327Z,7.35
2019-05-06T19:36:17.078Z,7.33
2019-05-06T19:38:46.776Z,7.44
2019-05-06T19:41:18.702Z,7.42
2019-05-06T19:43:52.248Z,7.42
2019-05-06T19:46:22.156Z,7.29
2019-05-06T19:48:52.557Z,7.28
2019-05-06T19:51:28.419Z,7.28
2019-05-06T19:54:02.091Z,7.27
2019-05-06T19:56:37.546Z,7.23
2019-05-06T19:59:10.032Z,7.23
2019-05-06T20:01:42.801Z,7.45
2019-05-06T20:04:15.000Z,7.28
2019-05-06T20:07:02.544Z,7.28
2019-05-06T20:09:52.101Z,7.36
2019-05-06T20:12:47.616Z,7.31
2019-05-06T20:15:38.345Z,7.26
2019-05-06T20:18:08.040Z,7.23
2019-05-06T20:20:38.385Z,7.25
2019-05-06T20:23:08.276Z,7.19
2019-05-06T20:25:38.400Z,7.23
2019-05-06T20:28:08.336Z,7.23
2019-05-06T20:30:38.191Z,7.19
2019-05-06T20:33:08.059Z,7.20
2019-05-06T20:35:38.156Z,6.99
2019-05-06T20:38:08.426Z,7.03
2019-05-06T20:40:39.065Z,6.99
2019-05-06T20:43:17.455Z,7.10
2019-05-06T20:45:42.881Z,7.10
2019-05-06T20:48:13.001Z,7.10
2019-05-06T20:50:44.132Z,6.97
2019-05-06T20:53:14.298Z,7.03
2019-05-06T20:55:44.359Z,7.03
2019-05-06T20:58:18.797Z,7.13
2019-05-06T21:00:52.064Z,7.03
2019-05-06T21:03:22.405Z,7.03
2019-05-06T21:05:52.307Z,7.05
2019-05-06T21:08:22.345Z,7.03
2019-05-06T21:10:53.219Z,6.99
2019-05-06T21:13:31.960Z,7.07
2019-05-06T21:15:55.485Z,7.07
2019-05-06T21:18:29.578Z,7.03
2019-05-06T21:21:02.090Z,6.95
2019-05-06T21:23:32.434Z,6.91
2019-05-06T21:26:03.289Z,6.83
2019-05-06T21:28:33.342Z,6.93
2019-05-06T21:31:03.308Z,6.93
2019-05-06T21:33:33.635Z,6.92
2019-05-06T21:36:03.315Z,6.87
2019-05-06T21:38:33.316Z,6.80
2019-05-06T21:41:03.572Z,6.88
2019-05-06T21:43:46.057Z,6.82
2019-05-06T21:46:05.207Z,6.75
2019-05-06T21:48:36.504Z,6.75
2019-05-06T21:51:06.534Z,6.76
2019-05-06T21:53:36.944Z,6.72
2019-05-06T21:56:06.700Z,6.70
2019-05-06T21:58:36.934Z,6.67
2019-05-06T22:01:07.828Z,6.68
2019-05-06T22:03:38.147Z,6.63
2019-05-06T22:06:07.693Z,6.63
2019-05-06T22:08:37.826Z,6.55
2019-05-06T22:11:07.633Z,6.55
2019-05-06T22:13:37.398Z,6.63
2019-05-06T22:16:08.721Z,6.70
2019-05-06T22:18:38.446Z,6.74
2019-05-06T22:21:22.542Z,6.74
2019-05-06T22:23:56.794Z,6.69
2019-05-06T22:26:26.841Z,6.78
2019-05-06T22:28:57.301Z,6.78
2019-05-06T22:31:28.048Z,6.77
2019-05-06T22:33:58.122Z,6.77
2019-05-06T22:36:32.106Z,6.79
2019-05-06T22:39:02.477Z,6.79
2019-05-06T22:41:33.055Z,6.72
2019-05-06T22:44:12.985Z,6.78
2019-05-06T22:46:36.085Z,6.75
2019-05-06T22:49:05.712Z,6.75
2019-05-06T22:51:36.190Z,6.65
2019-05-06T22:54:05.849Z,6.75
2019-05-06T22:56:38.152Z,6.78
2019-05-06T22:59:08.008Z,6.78
2019-05-06T23:02:02.789Z,6.80
2019-05-06T23:04:33.723Z,6.73
2019-05-06T23:07:04.855Z,6.73
2019-05-06T23:09:35.146Z,6.82
2019-05-06T23:12:04.956Z,6.82
2019-05-06T23:14:37.206Z,6.82
2019-05-06T23:17:06.310Z,6.85
2019-05-06T23:19:35.989Z,6.78
2019-05-06T23:22:05.852Z,6.84
2019-05-06T23:24:35.742Z,6.96
2019-05-06T23:27:05.730Z,6.83
2019-05-06T23:29:35.651Z,6.83
2019-05-06T23:32:05.748Z,6.82
2019-05-06T23:34:35.555Z,6.87
2019-05-06T23:37:23.939Z,6.87
2019-05-06T23:40:33.228Z,6.81
2019-05-06T23:43:39.082Z,6.78
2019-05-06T23:46:44.728Z,6.73
2019-05-06T23:49:49.859Z,6.76
2019-05-06T23:52:55.199Z,6.70
2019-05-06T23:56:02.835Z,6.71
2019-05-06T23:58:32.445Z,6.74
